createdAt,value
2022-11-17T00:01:41.042Z,1.36
2022-11-17T00:04:12.437Z,1.41
2022-11-17T00:06:42.919Z,1.41
2022-11-17T00:09:20.454Z,1.47
2022-11-17T00:12:10.842Z,1.52
2022-11-17T00:14:43.725Z,1.61
2022-11-17T00:17:15.382Z,1.68
2022-11-17T00:20:08.005Z,1.78
2022-11-17T00:22:37.951Z,1.89
2022-11-17T00:25:08.786Z,1.99
2022-11-17T00:27:39.161Z,2.09
2022-11-17T00:30:10.086Z,2.16
2022-11-17T00:32:58.945Z,2.25
2022-11-17T00:35:28.966Z,2.34
2022-11-17T00:38:17.240Z,2.44
2022-11-17T00:40:47.389Z,2.52
2022-11-17T00:43:18.490Z,2.59
2022-11-17T00:45:48.971Z,2.67
2022-11-17T00:48:20.439Z,2.74
2022-11-17T00:50:51.039Z,2.80
2022-11-17T00:53:21.303Z,2.91
2022-11-17T00:55:52.415Z,2.95
2022-11-17T00:58:22.542Z,3.02
2022-11-17T01:00:53.817Z,3.11
2022-11-17T01:03:24.041Z,3.21
2022-11-17T01:05:54.569Z,3.27
2022-11-17T01:08:24.745Z,3.36
2022-11-17T01:10:55.575Z,3.47
2022-11-17T01:13:26.149Z,3.55
2022-11-17T01:15:56.311Z,3.65
2022-11-17T01:18:26.359Z,3.70
2022-11-17T01:20:56.360Z,3.83
2022-11-17T01:23:27.986Z,3.91
2022-11-17T01:26:07.908Z,4.00
2022-11-17T01:28:38.701Z,4.09
2022-11-17T01:31:13.075Z,4.15
2022-11-17T01:33:44.396Z,4.24
2022-11-17T01:36:17.483Z,4.33
2022-11-17T01:38:47.579Z,4.39
2022-11-17T01:41:25.028Z,4.49
2022-11-17T01:44:00.743Z,4.59
2022-11-17T01:46:36.610Z,4.68
2022-11-17T01:49:05.972Z,4.78
2022-11-17T01:51:40.146Z,4.85
2022-11-17T01:54:15.045Z,4.93
2022-11-17T01:56:48.684Z,5.03
2022-11-17T01:59:30.698Z,5.12
2022-11-17T02:02:01.428Z,5.20
2022-11-17T02:04:43.182Z,5.30
2022-11-17T02:07:22.043Z,5.38
2022-11-17T02:09:55.097Z,5.47
2022-11-17T02:12:28.785Z,5.57
2022-11-17T02:14:59.348Z,5.66
2022-11-17T02:17:42.465Z,5.74
2022-11-17T02:20:54.689Z,5.84
2022-11-17T02:23:47.874Z,5.97
2022-11-17T02:26:35.539Z,6.06
2022-11-17T02:29:23.090Z,6.16
2022-11-17T02:32:11.237Z,6.26
2022-11-17T02:34:49.414Z,6.34
2022-11-17T02:37:50.279Z,6.42
2022-11-17T02:40:39.408Z,6.51
2022-11-17T02:43:36.756Z,6.55
2022-11-17T02:46:16.170Z,6.68
2022-11-17T02:48:52.731Z,6.73
2022-11-17T02:51:25.446Z,6.80
2022-11-17T02:53:58.737Z,6.86
2022-11-17T02:56:28.853Z,6.96
2022-11-17T02:59:07.129Z,7.04
2022-11-17T03:01:37.906Z,7.09
2022-11-17T03:04:46.821Z,7.15
2022-11-17T03:07:52.173Z,7.23
2022-11-17T03:10:36.364Z,7.30
2022-11-17T03:13:18.917Z,7.39
2022-11-17T03:15:58.990Z,7.48
2022-11-17T03:18:44.574Z,7.55
2022-11-17T03:21:42.181Z,7.63
2022-11-17T03:24:16.035Z,7.71
2022-11-17T03:26:54.291Z,7.77
2022-11-17T03:29:28.759Z,7.84
2022-11-17T03:32:05.372Z,7.91
2022-11-17T03:34:41.427Z,7.98
2022-11-17T03:37:15.757Z,8.06
2022-11-17T03:39:47.198Z,8.12
2022-11-17T03:42:23.277Z,8.21
2022-11-17T03:44:57.447Z,8.31
2022-11-17T03:47:31.479Z,8.37
2022-11-17T03:50:34.175Z,8.49
2022-11-17T03:53:04.622Z,8.58
2022-11-17T03:56:03.485Z,8.67
2022-11-17T03:58:40.133Z,8.73
2022-11-17T04:01:10.614Z,8.79
2022-11-17T04:03:41.299Z,8.85
2022-11-17T04:06:11.790Z,8.93
2022-11-17T04:08:41.754Z,9.00
2022-11-17T04:11:29.869Z,9.07
2022-11-17T04:14:18.293Z,9.14
2022-11-17T04:16:48.905Z,9.19
2022-11-17T04:19:19.030Z,9.26
2022-11-17T04:21:49.042Z,9.29
2022-11-17T04:24:19.690Z,9.33
2022-11-17T04:27:08.885Z,9.39
2022-11-17T04:29:40.193Z,9.43
2022-11-17T04:32:10.317Z,9.46
2022-11-17T04:34:42.881Z,9.53
2022-11-17T04:37:18.512Z,9.57
2022-11-17T04:39:48.897Z,9.65
2022-11-17T04:42:18.768Z,9.69
2022-11-17T04:44:48.724Z,9.74
2022-11-17T04:47:18.629Z,9.77
2022-11-17T04:49:48.673Z,9.85
2022-11-17T04:52:19.386Z,9.89
2022-11-17T04:54:50.159Z,9.92
2022-11-17T04:57:20.899Z,9.95
2022-11-17T04:59:50.799Z,9.98
2022-11-17T05:02:21.371Z,10.01
2022-11-17T05:04:58.377Z,10.04
2022-11-17T05:07:29.388Z,10.08
2022-11-17T05:09:59.721Z,10.13
2022-11-17T05:12:47.572Z,10.17
2022-11-17T05:15:37.265Z,10.21
2022-11-17T05:18:07.338Z,10.24
2022-11-17T05:20:37.345Z,10.31
2022-11-17T05:23:26.277Z,10.34
2022-11-17T05:25:56.240Z,10.37
2022-11-17T05:28:26.870Z,10.43
2022-11-17T05:30:56.913Z,10.49
2022-11-17T05:33:27.707Z,10.52
2022-11-17T05:35:57.861Z,10.55
2022-11-17T05:38:27.939Z,10.62
2022-11-17T05:40:58.550Z,10.66
2022-11-17T05:43:28.863Z,10.72
2022-11-17T05:45:59.277Z,10.76
2022-11-17T05:48:31.157Z,10.82
2022-11-17T05:51:02.755Z,10.87
2022-11-17T05:53:34.364Z,10.88
2022-11-17T05:56:32.240Z,10.92
2022-11-17T05:59:14.759Z,10.95
2022-11-17T06:02:10.727Z,10.97
2022-11-17T06:04:42.008Z,10.97
2022-11-17T06:07:12.692Z,10.98
2022-11-17T06:09:44.035Z,11.02
2022-11-17T06:12:14.369Z,11.03
2022-11-17T06:14:45.503Z,11.03
2022-11-17T06:17:27.917Z,11.03
2022-11-17T06:20:10.822Z,11.04
2022-11-17T06:22:47.042Z,11.05
2022-11-17T06:25:22.557Z,11.02
2022-11-17T06:27:54.144Z,11.04
2022-11-17T06:30:24.221Z,11.06
2022-11-17T06:32:55.470Z,11.08
2022-11-17T06:35:26.881Z,11.05
2022-11-17T06:37:56.917Z,11.08
2022-11-17T06:40:26.961Z,11.10
2022-11-17T06:43:26.309Z,11.11
2022-11-17T06:45:56.600Z,11.10
2022-11-17T06:48:29.336Z,11.10
2022-11-17T06:50:59.297Z,11.10
2022-11-17T06:53:30.314Z,11.10
2022-11-17T06:56:06.909Z,11.08
2022-11-17T06:58:39.872Z,11.06
2022-11-17T07:01:12.442Z,11.05
2022-11-17T07:03:44.583Z,11.01
2022-11-17T07:06:15.265Z,10.95
2022-11-17T07:08:47.948Z,10.96
2022-11-17T07:11:18.576Z,10.93
2022-11-17T07:13:48.643Z,10.91
2022-11-17T07:16:24.356Z,10.88
2022-11-17T07:18:54.997Z,10.85
2022-11-17T07:21:25.481Z,10.81
2022-11-17T07:23:56.397Z,10.75
2022-11-17T07:26:26.584Z,10.72
2022-11-17T07:28:56.837Z,10.69
2022-11-17T07:31:26.787Z,10.68
2022-11-17T07:33:56.823Z,10.67
2022-11-17T07:36:26.772Z,10.64
2022-11-17T07:38:57.244Z,10.61
2022-11-17T07:41:28.273Z,10.55
2022-11-17T07:43:58.384Z,10.54
2022-11-17T07:46:28.408Z,10.50
2022-11-17T07:48:58.412Z,10.45
2022-11-17T07:51:28.624Z,10.37
2022-11-17T07:53:58.549Z,10.32
2022-11-17T07:56:28.603Z,10.24
2022-11-17T07:58:58.652Z,10.16
2022-11-17T08:01:28.790Z,10.13
2022-11-17T08:04:00.426Z,10.07
2022-11-17T08:06:31.385Z,10.03
2022-11-17T08:09:01.928Z,9.97
2022-11-17T08:11:34.234Z,9.93
2022-11-17T08:14:05.145Z,9.88
2022-11-17T08:16:35.826Z,9.79
2022-11-17T08:19:08.240Z,9.76
2022-11-17T08:21:39.657Z,9.70
2022-11-17T08:24:11.175Z,9.61
2022-11-17T08:26:43.264Z,9.57
2022-11-17T08:29:13.599Z,9.51
2022-11-17T08:31:47.604Z,9.45
2022-11-17T08:34:18.024Z,9.39
2022-11-17T08:36:48.803Z,9.33
2022-11-17T08:39:18.881Z,9.29
2022-11-17T08:41:49.764Z,9.22
2022-11-17T08:44:20.200Z,9.17
2022-11-17T08:46:50.481Z,9.09
2022-11-17T08:49:21.391Z,9.07
2022-11-17T08:51:52.215Z,9.01
2022-11-17T08:54:22.676Z,8.94
2022-11-17T08:56:53.731Z,8.84
2022-11-17T08:59:23.640Z,8.81
2022-11-17T09:01:53.899Z,8.76
2022-11-17T09:04:25.026Z,8.66
2022-11-17T09:06:55.504Z,8.61
2022-11-17T09:09:26.067Z,8.54
2022-11-17T09:11:56.540Z,8.52
2022-11-17T09:14:26.604Z,8.45
2022-11-17T09:16:56.602Z,8.41
2022-11-17T09:19:26.516Z,8.36
2022-11-17T09:21:56.578Z,8.30
2022-11-17T09:24:27.912Z,8.25
2022-11-17T09:26:58.883Z,8.21
2022-11-17T09:29:28.840Z,8.16
2022-11-17T09:31:59.211Z,8.11
2022-11-17T09:34:30.668Z,8.07
2022-11-17T09:37:01.170Z,8.03
2022-11-17T09:39:31.501Z,7.97
2022-11-17T09:42:02.704Z,7.91
2022-11-17T09:44:53.784Z,7.91
2022-11-17T09:47:46.107Z,7.85
2022-11-17T09:50:40.554Z,7.82
2022-11-17T09:53:51.469Z,7.80
2022-11-17T09:56:21.864Z,7.76
2022-11-17T09:59:00.228Z,7.77
2022-11-17T10:01:32.044Z,7.74
2022-11-17T10:04:02.772Z,7.70
2022-11-17T10:06:34.223Z,7.66
2022-11-17T10:09:13.425Z,7.61
2022-11-17T10:11:46.316Z,7.56
2022-11-17T10:14:24.454Z,7.52
2022-11-17T10:17:00.640Z,7.44
2022-11-17T10:19:32.618Z,7.42
2022-11-17T10:22:06.867Z,7.39
2022-11-17T10:24:38.618Z,7.37
2022-11-17T10:27:21.503Z,7.36
2022-11-17T10:30:06.290Z,7.35
2022-11-17T10:32:54.313Z,7.33
2022-11-17T10:35:27.225Z,7.33
2022-11-17T10:37:59.896Z,7.32
2022-11-17T10:40:47.411Z,7.33
2022-11-17T10:43:19.929Z,7.33
2022-11-17T10:46:06.903Z,7.33
2022-11-17T10:48:40.063Z,7.33
2022-11-17T10:51:21.703Z,7.32
2022-11-17T10:54:19.732Z,7.30
2022-11-17T10:56:56.468Z,7.29
2022-11-17T10:59:44.896Z,7.28
2022-11-17T11:02:38.968Z,7.27
2022-11-17T11:05:15.010Z,7.25
2022-11-17T11:07:45.573Z,7.25
2022-11-17T11:10:18.244Z,7.24
2022-11-17T11:13:17.741Z,7.19
2022-11-17T11:15:50.441Z,7.24
2022-11-17T11:18:22.242Z,7.22
2022-11-17T11:21:14.225Z,7.24
2022-11-17T11:24:22.361Z,7.26
2022-11-17T11:27:24.601Z,7.25
2022-11-17T11:30:17.246Z,7.22
2022-11-17T11:33:01.394Z,7.17
2022-11-17T11:36:06.215Z,7.11
2022-11-17T11:38:56.681Z,7.07
2022-11-17T11:41:56.383Z,7.01
2022-11-17T11:44:34.914Z,6.93
2022-11-17T11:47:08.174Z,6.90
2022-11-17T11:49:59.739Z,6.84
2022-11-17T11:52:36.025Z,6.78
2022-11-17T11:55:10.215Z,6.71
2022-11-17T11:57:48.353Z,6.63
2022-11-17T12:00:23.358Z,6.57
2022-11-17T12:03:15.018Z,6.52
2022-11-17T12:06:34.936Z,6.38
2022-11-17T12:09:18.803Z,6.19
2022-11-17T12:12:02.633Z,6.02
2022-11-17T12:14:36.597Z,5.87
2022-11-17T12:17:10.916Z,5.74
2022-11-17T12:19:54.832Z,5.64
2022-11-17T12:22:41.300Z,5.54
2022-11-17T12:25:50.486Z,5.42
2022-11-17T12:28:28.972Z,5.32
2022-11-17T12:31:10.140Z,5.23
2022-11-17T12:33:55.402Z,5.15
2022-11-17T12:36:34.587Z,5.06
2022-11-17T12:39:08.839Z,4.99
2022-11-17T12:41:54.663Z,4.93
2022-11-17T12:44:40.931Z,4.89
2022-11-17T12:47:23.936Z,4.84
2022-11-17T12:50:21.833Z,4.82
2022-11-17T12:53:03.304Z,4.77
2022-11-17T12:55:46.834Z,4.73
2022-11-17T12:58:52.224Z,4.72
2022-11-17T13:01:47.778Z,4.77
2022-11-17T13:04:49.406Z,4.79
2022-11-17T13:07:24.072Z,4.80
2022-11-17T13:10:00.430Z,4.80
2022-11-17T13:12:34.455Z,4.81
2022-11-17T13:15:09.052Z,4.84
2022-11-17T13:17:45.544Z,4.84
2022-11-17T13:20:35.351Z,4.87
2022-11-17T13:23:27.494Z,4.91
2022-11-17T13:26:21.279Z,4.93
2022-11-17T13:29:07.574Z,4.93
2022-11-17T13:31:39.044Z,4.93
2022-11-17T13:34:16.134Z,4.89
2022-11-17T13:36:58.626Z,4.79
2022-11-17T13:39:29.997Z,4.75
2022-11-17T13:42:03.025Z,4.66
2022-11-17T13:44:36.105Z,4.61
2022-11-17T13:47:49.006Z,4.60
2022-11-17T13:50:31.323Z,4.55
2022-11-17T13:53:06.514Z,4.53
2022-11-17T13:55:38.502Z,4.53
2022-11-17T13:58:12.814Z,4.55
2022-11-17T14:00:55.729Z,4.57
2022-11-17T14:03:37.721Z,4.61
2022-11-17T14:06:12.310Z,4.62
2022-11-17T14:08:46.855Z,4.65
2022-11-17T14:11:23.462Z,4.67
2022-11-17T14:14:02.548Z,4.66
2022-11-17T14:16:42.237Z,4.69
2022-11-17T14:19:19.526Z,4.69
2022-11-17T14:22:06.626Z,4.68
2022-11-17T14:24:38.715Z,4.66
2022-11-17T14:27:49.081Z,4.66
2022-11-17T14:30:22.499Z,4.64
2022-11-17T14:32:53.319Z,4.61
2022-11-17T14:35:25.388Z,4.58
2022-11-17T14:37:59.030Z,4.49
2022-11-17T14:40:30.964Z,4.42
2022-11-17T14:43:02.334Z,4.31
2022-11-17T14:45:36.691Z,4.22
2022-11-17T14:48:08.945Z,4.16
2022-11-17T14:50:41.586Z,4.07
2022-11-17T14:53:15.416Z,4.04
2022-11-17T14:55:46.783Z,4.01
2022-11-17T14:58:20.134Z,4.05
2022-11-17T15:00:52.405Z,4.06
2022-11-17T15:03:26.556Z,4.08
2022-11-17T15:05:57.627Z,4.07
2022-11-17T15:08:28.201Z,4.07
2022-11-17T15:10:59.201Z,4.07
2022-11-17T15:13:29.919Z,4.11
2022-11-17T15:16:09.832Z,4.13
2022-11-17T15:18:42.038Z,4.14
2022-11-17T15:21:14.210Z,4.13
2022-11-17T15:23:46.779Z,4.12
2022-11-17T15:26:25.292Z,4.12
2022-11-17T15:28:59.385Z,4.11
2022-11-17T15:31:32.045Z,4.08
2022-11-17T15:34:03.949Z,4.01
2022-11-17T15:36:34.637Z,3.96
2022-11-17T15:39:05.189Z,3.89
2022-11-17T15:41:35.947Z,3.81
2022-11-17T15:44:06.547Z,3.73
2022-11-17T15:46:39.662Z,3.66
2022-11-17T15:49:14.197Z,3.60
2022-11-17T15:51:45.468Z,3.49
2022-11-17T15:54:20.307Z,3.52
2022-11-17T15:56:53.253Z,3.52
2022-11-17T15:59:24.031Z,3.55
2022-11-17T16:01:54.924Z,3.58
2022-11-17T16:04:25.475Z,3.60
2022-11-17T16:06:57.260Z,3.63
2022-11-17T16:09:29.059Z,3.65
2022-11-17T16:12:01.274Z,3.67
2022-11-17T16:14:32.341Z,3.67
2022-11-17T16:17:03.814Z,3.72
2022-11-17T16:19:35.618Z,3.74
2022-11-17T16:22:08.093Z,3.76
2022-11-17T16:24:39.580Z,3.76
2022-11-17T16:27:13.704Z,3.77
2022-11-17T16:29:45.492Z,3.74
2022-11-17T16:32:16.266Z,3.71
2022-11-17T16:34:50.258Z,3.71
2022-11-17T16:37:21.003Z,3.70
2022-11-17T16:39:51.629Z,3.64
2022-11-17T16:42:21.694Z,3.59
2022-11-17T16:44:53.483Z,3.53
2022-11-17T16:47:24.185Z,3.47
2022-11-17T16:49:55.853Z,3.44
2022-11-17T16:52:26.514Z,3.38
2022-11-17T16:55:03.277Z,3.40
2022-11-17T16:57:36.093Z,3.44
2022-11-17T17:00:08.534Z,3.49
2022-11-17T17:02:38.878Z,3.49
2022-11-17T17:05:09.947Z,3.47
2022-11-17T17:07:40.647Z,3.45
2022-11-17T17:10:11.059Z,3.43
2022-11-17T17:12:41.124Z,3.42
2022-11-17T17:15:13.054Z,3.42
2022-11-17T17:17:43.442Z,3.38
2022-11-17T17:20:14.421Z,3.39
2022-11-17T17:22:44.618Z,3.33
2022-11-17T17:25:16.395Z,3.31
2022-11-17T17:27:46.703Z,3.30
2022-11-17T17:30:17.070Z,3.28
2022-11-17T17:32:47.167Z,3.25
2022-11-17T17:35:17.132Z,3.19
2022-11-17T17:37:48.700Z,3.18
2022-11-17T17:40:20.225Z,3.13
2022-11-17T17:42:52.054Z,3.08
2022-11-17T17:45:22.673Z,3.01
2022-11-17T17:47:54.195Z,2.96
2022-11-17T17:50:26.278Z,2.88
2022-11-17T17:52:56.767Z,2.86
2022-11-17T17:55:26.729Z,2.84
2022-11-17T17:57:57.838Z,2.83
2022-11-17T18:00:29.629Z,2.84
2022-11-17T18:03:01.770Z,2.85
2022-11-17T18:05:33.605Z,2.86
2022-11-17T18:08:06.252Z,2.87
2022-11-17T18:10:39.119Z,2.86
2022-11-17T18:13:10.973Z,2.89
2022-11-17T18:15:42.021Z,2.92
2022-11-17T18:18:12.268Z,2.94
2022-11-17T18:20:42.262Z,2.95
2022-11-17T18:23:12.466Z,2.95
2022-11-17T18:25:42.454Z,2.98
2022-11-17T18:28:14.027Z,2.97
2022-11-17T18:30:44.980Z,2.95
2022-11-17T18:33:14.934Z,2.95
2022-11-17T18:35:46.090Z,2.92
2022-11-17T18:38:16.848Z,2.88
2022-11-17T18:40:48.167Z,2.83
2022-11-17T18:43:19.277Z,2.81
2022-11-17T18:45:49.335Z,2.78
2022-11-17T18:48:20.864Z,2.76
2022-11-17T18:51:17.663Z,2.79
2022-11-17T18:53:42.389Z,2.77
2022-11-17T18:56:17.432Z,2.79
2022-11-17T18:58:47.626Z,2.80
2022-11-17T19:01:21.563Z,2.84
2022-11-17T19:03:56.446Z,2.87
2022-11-17T19:06:28.017Z,2.91
2022-11-17T19:09:02.041Z,2.95
2022-11-17T19:11:35.909Z,2.98
2022-11-17T19:14:07.510Z,2.99
2022-11-17T19:16:44.806Z,3.02
2022-11-17T19:19:16.497Z,3.05
2022-11-17T19:21:47.144Z,3.05
2022-11-17T19:24:19.426Z,3.07
2022-11-17T19:26:49.695Z,3.09
2022-11-17T19:29:21.201Z,3.13
2022-11-17T19:32:01.084Z,3.18
2022-11-17T19:34:32.264Z,3.20
2022-11-17T19:37:02.546Z,3.21
2022-11-17T19:39:32.529Z,3.25
2022-11-17T19:42:03.083Z,3.23
2022-11-17T19:44:34.839Z,3.19
2022-11-17T19:47:06.282Z,3.13
2022-11-17T19:49:36.444Z,3.10
2022-11-17T19:52:07.976Z,3.09
2022-11-17T19:54:39.791Z,3.05
2022-11-17T19:57:11.808Z,2.96
2022-11-17T19:59:41.969Z,3.01
2022-11-17T20:02:15.279Z,3.00
2022-11-17T20:04:45.596Z,2.97
2022-11-17T20:07:15.772Z,2.95
2022-11-17T20:09:46.656Z,2.89
2022-11-17T20:12:17.087Z,2.87
2022-11-17T20:14:48.494Z,2.84
2022-11-17T20:17:19.639Z,2.82
2022-11-17T20:19:50.050Z,2.82
2022-11-17T20:22:20.341Z,2.82
2022-11-17T20:24:49.740Z,2.82
2022-11-17T20:27:20.589Z,2.81
2022-11-17T20:29:51.634Z,2.81
2022-11-17T20:32:22.104Z,2.84
2022-11-17T20:34:52.344Z,2.86
2022-11-17T20:37:22.393Z,2.87
2022-11-17T20:39:53.298Z,2.89
2022-11-17T20:42:24.789Z,2.86
2022-11-17T20:44:55.200Z,2.86
2022-11-17T20:47:30.469Z,2.83
2022-11-17T20:50:01.847Z,2.75
2022-11-17T20:52:33.463Z,2.75
2022-11-17T20:55:04.605Z,2.64
2022-11-17T20:57:35.508Z,2.61
2022-11-17T21:00:06.233Z,2.59
2022-11-17T21:02:36.748Z,2.60
2022-11-17T21:05:07.023Z,2.58
2022-11-17T21:07:38.273Z,2.55
2022-11-17T21:10:09.618Z,2.51
2022-11-17T21:12:40.916Z,2.51
2022-11-17T21:15:12.798Z,2.49
2022-11-17T21:18:00.926Z,2.44
2022-11-17T21:20:32.491Z,2.48
2022-11-17T21:23:04.669Z,2.52
2022-11-17T21:25:38.056Z,2.54
2022-11-17T21:28:08.205Z,2.54
2022-11-17T21:30:38.519Z,2.52
2022-11-17T21:33:08.624Z,2.50
2022-11-17T21:35:39.977Z,2.46
2022-11-17T21:38:10.128Z,2.45
2022-11-17T21:40:40.890Z,2.39
2022-11-17T21:43:10.880Z,2.40
2022-11-17T21:45:41.132Z,2.39
2022-11-17T21:48:11.525Z,2.40
2022-11-17T21:50:46.415Z,2.39
2022-11-17T21:53:16.520Z,2.40
2022-11-17T21:55:46.558Z,2.36
2022-11-17T21:58:17.296Z,2.37
2022-11-17T22:00:47.814Z,2.37
2022-11-17T22:03:17.817Z,2.40
2022-11-17T22:05:50.078Z,2.42
2022-11-17T22:08:22.426Z,2.42
2022-11-17T22:10:51.841Z,2.43
2022-11-17T22:13:22.867Z,2.45
2022-11-17T22:15:53.848Z,2.49
2022-11-17T22:18:25.068Z,2.53
2022-11-17T22:20:55.881Z,2.55
2022-11-17T22:23:25.968Z,2.57
2022-11-17T22:26:05.615Z,2.58
2022-11-17T22:28:36.134Z,2.55
2022-11-17T22:31:11.368Z,2.57
2022-11-17T22:33:41.519Z,2.56
2022-11-17T22:36:13.060Z,2.54
2022-11-17T22:38:44.429Z,2.54
2022-11-17T22:41:15.923Z,2.54
2022-11-17T22:43:49.509Z,2.53
2022-11-17T22:46:22.349Z,2.51
2022-11-17T22:48:52.555Z,2.47
2022-11-17T22:51:41.446Z,2.43
2022-11-17T22:54:12.342Z,2.36
2022-11-17T22:56:42.832Z,2.30
2022-11-17T22:59:12.799Z,2.27
2022-11-17T23:01:43.059Z,2.24
2022-11-17T23:04:15.238Z,2.25
2022-11-17T23:06:45.928Z,2.23
2022-11-17T23:09:16.414Z,2.28
2022-11-17T23:11:46.081Z,2.33
2022-11-17T23:14:16.487Z,2.35
2022-11-17T23:16:46.523Z,2.41
2022-11-17T23:19:16.839Z,2.44
2022-11-17T23:21:47.508Z,2.49
2022-11-17T23:24:18.341Z,2.54
2022-11-17T23:26:50.041Z,2.58
2022-11-17T23:29:20.374Z,2.62
2022-11-17T23:31:50.605Z,2.68
2022-11-17T23:34:21.628Z,2.75
2022-11-17T23:36:52.814Z,2.80
2022-11-17T23:39:22.922Z,2.87
2022-11-17T23:41:53.667Z,2.95
2022-11-17T23:44:23.617Z,3.00
2022-11-17T23:46:53.566Z,3.03
2022-11-17T23:49:23.855Z,3.11
2022-11-17T23:51:53.791Z,3.08
2022-11-17T23:54:23.889Z,3.09
2022-11-17T23:56:55.479Z,3.11
2022-11-17T23:59:25.662Z,3.13
